Time;durP1;ratioP1;P1;durP2;ratioP2;P2;SDS_P1;SDS_P2;PMS_P1;PMS_P2;Temp;Humidity;BMP_temperature;BMP_pressure;BME280_temperature;BME280_humidity;BME280_pressure;Samples;Min_cycle;Max_cycle;Signal;HPM_P1;HPM_P2
2020/12/17 00:00:43;;;;;;;10.88;3.28;;;;;;;8.66;73.48;99783.66;5072207;28;20386;-89
2020/12/17 00:03:08;;;;;;;10.93;2.78;;;;;;;8.50;75.53;99790.91;5054299;28;20474;-89
2020/12/17 00:05:34;;;;;;;13.68;2.58;;;;;;;8.55;74.96;99788.84;5072804;28;20355;-90
2020/12/17 00:07:59;;;;;;;7.90;2.40;;;;;;;8.49;75.18;99790.09;5073069;28;20028;-89
2020/12/17 00:10:25;;;;;;;16.08;2.50;;;;;;;8.47;74.99;99796.34;5073055;28;20032;-89
2020/12/17 00:12:50;;;;;;;9.43;2.20;;;;;;;8.56;75.18;99795.72;5072733;28;20405;-90
2020/12/17 00:15:18;;;;;;;13.80;2.65;;;;;;;8.59;75.96;99795.53;5072690;28;20085;-90
2020/12/17 00:17:48;;;;;;;6.60;2.55;;;;;;;8.62;75.25;99787.44;5071344;28;20028;-89
2020/12/17 00:20:15;;;;;;;10.02;2.50;;;;;;;8.58;75.16;99787.78;5054133;28;20427;-89
2020/12/17 00:22:41;;;;;;;17.48;2.65;;;;;;;8.54;75.11;99787.16;5071931;28;20463;-90
2020/12/17 00:25:12;;;;;;;14.98;2.60;;;;;;;8.53;75.22;99790.69;5058059;28;20047;-90
2020/12/17 00:27:38;;;;;;;14.27;2.58;;;;;;;8.42;74.66;99788.00;5056499;28;20111;-89
2020/12/17 00:30:06;;;;;;;10.18;2.58;;;;;;;8.38;74.69;99791.75;5072495;28;20116;-89
2020/12/17 00:32:31;;;;;;;13.88;3.15;;;;;;;8.45;75.41;99793.00;5072652;28;20378;-90
2020/12/17 00:34:57;;;;;;;10.25;1.98;;;;;;;8.49;76.33;99794.47;5072271;28;20029;-89
2020/12/17 00:37:27;;;;;;;9.40;2.15;;;;;;;8.55;75.37;99804.53;5072429;28;20099;-90
2020/12/17 00:39:52;;;;;;;13.07;2.38;;;;;;;8.58;75.39;99798.25;5072356;28;20043;-89
2020/12/17 00:42:18;;;;;;;13.77;2.95;;;;;;;8.59;75.59;99785.06;5072467;28;20036;-89
2020/12/17 00:44:43;;;;;;;13.30;2.20;;;;;;;8.61;75.36;99784.94;5072414;28;20385;-90
2020/12/17 00:47:08;;;;;;;15.38;3.60;;;;;;;8.62;75.40;99795.28;5072455;28;20028;-90
2020/12/17 00:49:34;;;;;;;11.63;2.83;;;;;;;8.73;75.20;99792.78;5076374;22;20091;-88
2020/12/17 00:52:00;;;;;;;15.52;3.10;;;;;;;8.68;75.41;99789.63;5034531;28;20029;-88
2020/12/17 00:54:27;;;;;;;12.73;2.38;;;;;;;8.89;75.36;99803.00;5052605;28;20025;-88
2020/12/17 00:56:53;;;;;;;20.05;2.47;;;;;;;8.82;75.58;99800.91;5052294;28;20078;-88
2020/12/17 00:59:18;;;;;;;13.88;3.03;;;;;;;8.85;75.15;99800.72;5052112;28;20021;-88
2020/12/17 01:01:43;;;;;;;9.68;2.20;;;;;;;8.83;75.34;99808.66;5052158;28;20116;-88
2020/12/17 01:04:09;;;;;;;11.88;2.65;;;;;;;8.90;75.27;99807.28;5052247;28;20025;-87
2020/12/17 01:06:34;;;;;;;12.57;2.60;;;;;;;8.96;75.17;99803.38;5034032;28;20063;-89
2020/12/17 01:08:59;;;;;;;12.52;2.67;;;;;;;9.05;75.15;99812.41;5052220;28;20037;-88
2020/12/17 01:11:29;;;;;;;12.57;2.50;;;;;;;9.18;75.32;99807.94;5051835;28;20028;-88
2020/12/17 01:13:55;;;;;;;12.48;2.78;;;;;;;9.18;74.30;99815.78;5034133;28;20467;-88
2020/12/17 01:16:21;;;;;;;14.60;2.50;;;;;;;9.34;74.96;99823.41;5034156;28;20037;-88
2020/12/17 01:18:47;;;;;;;12.38;2.40;;;;;;;9.35;74.46;99822.44;5051898;28;20471;-88
2020/12/17 01:21:13;;;;;;;11.52;2.38;;;;;;;9.39;74.05;99818.66;5033923;28;20029;-88
2020/12/17 01:23:38;;;;;;;10.43;2.33;;;;;;;9.27;74.58;99816.94;5052286;28;20029;-88
2020/12/17 01:26:08;;;;;;;15.18;3.28;;;;;;;9.37;74.47;99824.97;5051833;28;20029;-88
2020/12/17 01:28:34;;;;;;;11.10;2.20;;;;;;;9.46;74.45;99822.53;5033846;28;20025;-88
2020/12/17 01:31:05;;;;;;;10.10;2.35;;;;;;;9.44;73.36;99813.94;5051719;28;20025;-88
2020/12/17 01:33:30;;;;;;;11.80;2.50;;;;;;;9.57;73.05;99823.50;5034075;28;20117;-88
2020/12/17 01:35:59;;;;;;;9.52;2.08;;;;;;;9.58;73.81;99826.03;5051637;28;20112;-88
2020/12/17 01:38:25;;;;;;;12.35;2.47;;;;;;;9.50;73.85;99821.34;5051704;28;20250;-88
2020/12/17 01:40:50;;;;;;;11.85;2.08;;;;;;;9.50;73.87;99829.22;5051780;28;20250;-88
2020/12/17 01:43:15;;;;;;;6.43;1.67;;;;;;;9.52;73.44;99816.00;5033817;28;20051;-88
2020/12/17 01:45:41;;;;;;;10.88;2.05;;;;;;;9.48;73.82;99825.03;5051639;28;20033;-88
2020/12/17 01:48:07;;;;;;;18.25;2.17;;;;;;;9.58;73.17;99815.53;5051725;28;20467;-88
2020/12/17 01:50:33;;;;;;;10.13;1.73;;;;;;;9.72;73.20;99830.25;5052112;28;20056;-88
2020/12/17 01:52:59;;;;;;;7.57;1.92;;;;;;;9.71;72.69;99836.44;5051770;28;20029;-88
2020/12/17 01:55:27;;;;;;;11.75;2.13;;;;;;;9.71;73.46;99836.44;5051598;28;20489;-88
2020/12/17 01:57:57;;;;;;;6.65;2.30;;;;;;;9.71;73.59;99831.19;5051599;28;20075;-88
2020/12/17 02:00:24;;;;;;;14.15;1.63;;;;;;;9.69;72.88;99844.41;5051405;28;20104;-88
2020/12/17 02:02:49;;;;;;;11.30;2.45;;;;;;;9.58;73.37;99843.53;5051506;28;20029;-88
2020/12/17 02:05:15;;;;;;;12.70;2.30;;;;;;;9.53;73.47;99842.06;5051366;28;20024;-88
2020/12/17 02:07:43;;;;;;;9.30;2.42;;;;;;;9.53;72.88;99852.56;5051590;28;20638;-88
2020/12/17 02:10:09;;;;;;;15.32;5.22;;;;;;;9.63;72.66;99854.50;5051343;28;20021;-88
2020/12/17 02:12:42;;;;;;;12.68;2.25;;;;;;;9.64;73.02;99856.22;5051460;28;20078;-88
2020/12/17 02:15:08;;;;;;;7.88;2.30;;;;;;;9.50;73.20;99859.81;5051499;28;20024;-88
2020/12/17 02:17:33;;;;;;;10.77;1.65;;;;;;;9.56;72.86;99856.75;5051826;28;20475;-88
2020/12/17 02:19:58;;;;;;;16.15;2.78;;;;;;;9.49;73.59;99866.00;5033416;28;20025;-88
2020/12/17 02:22:24;;;;;;;9.75;1.95;;;;;;;9.52;72.77;99873.66;5052906;28;20421;-88
2020/12/17 02:24:49;;;;;;;18.83;2.40;;;;;;;9.33;74.29;99879.38;5055134;28;20467;-87
2020/12/17 02:27:14;;;;;;;8.27;1.38;;;;;;;9.45;72.90;99894.19;5055040;28;20057;-87
2020/12/17 02:29:40;;;;;;;7.03;1.42;;;;;;;9.38;72.98;99892.97;5054800;28;20021;-88
2020/12/17 02:32:05;;;;;;;11.25;2.55;;;;;;;9.34;72.98;99891.53;5055066;28;20032;-87
2020/12/17 02:34:30;;;;;;;8.43;1.63;;;;;;;9.43;72.49;99897.88;5037055;28;20174;-88
2020/12/17 02:36:56;;;;;;;15.82;2.35;;;;;;;9.35;73.70;99906.28;5054954;28;20060;-88
2020/12/17 02:39:21;;;;;;;8.30;1.48;;;;;;;9.42;73.09;99915.41;5054594;28;20017;-87
2020/12/17 02:41:46;;;;;;;9.60;1.58;;;;;;;9.38;73.84;99915.72;5054845;28;20474;-88
2020/12/17 02:44:12;;;;;;;9.48;1.88;;;;;;;9.27;73.56;99919.09;5054862;28;20386;-88
2020/12/17 02:46:38;;;;;;;8.85;1.70;;;;;;;9.27;73.09;99911.25;5036749;28;20029;-88
2020/12/17 02:49:03;;;;;;;9.20;1.52;;;;;;;9.21;73.93;99920.34;5055272;28;20082;-88
2020/12/17 02:51:28;;;;;;;7.55;1.42;;;;;;;9.33;73.46;99916.88;5054735;28;20020;-88
2020/12/17 02:53:54;;;;;;;10.45;1.50;;;;;;;9.44;72.70;99918.75;5054754;28;20467;-87
2020/12/17 02:56:19;;;;;;;10.00;1.52;;;;;;;9.30;72.95;99913.63;5038569;28;20025;-87
2020/12/17 02:58:45;;;;;;;10.23;1.83;;;;;;;9.23;73.52;99913.22;5055696;28;20028;-88
2020/12/17 03:01:10;;;;;;;9.57;2.40;;;;;;;9.24;73.68;99912.31;5054341;28;20441;-88
2020/12/17 03:03:36;;;;;;;9.23;1.88;;;;;;;9.06;73.99;99909.19;5054576;28;20017;-88
2020/12/17 03:06:02;;;;;;;11.60;1.77;;;;;;;9.20;73.47;99902.13;5054355;28;20112;-88
2020/12/17 03:08:27;;;;;;;7.80;1.45;;;;;;;9.30;73.33;99911.00;5054138;28;20043;-87
2020/12/17 03:10:53;;;;;;;13.13;1.88;;;;;;;9.23;73.23;99904.53;5054246;28;20021;-88
2020/12/17 03:13:19;;;;;;;11.88;1.48;;;;;;;9.07;74.19;99904.78;5054080;28;20048;-88
2020/12/17 03:15:44;;;;;;;8.75;1.02;;;;;;;9.12;73.53;99919.22;5054182;28;20475;-87
2020/12/17 03:18:10;;;;;;;11.20;1.63;;;;;;;8.96;74.67;99923.84;5054392;28;20035;-88
2020/12/17 03:20:35;;;;;;;11.13;1.95;;;;;;;9.06;73.71;99924.91;5054082;28;20044;-87
2020/12/17 03:23:00;;;;;;;6.60;1.33;;;;;;;9.03;74.17;99919.88;5054077;28;20020;-87
2020/12/17 03:25:26;;;;;;;5.30;1.70;;;;;;;9.02;73.11;99917.34;5053995;28;20489;-88
2020/12/17 03:27:51;;;;;;;14.07;1.80;;;;;;;8.99;74.71;99923.63;5053928;28;20522;-88
2020/12/17 03:30:17;;;;;;;4.78;1.45;;;;;;;8.98;74.02;99918.50;5036141;28;20025;-88
2020/12/17 03:32:42;;;;;;;11.90;1.42;;;;;;;8.95;74.49;99926.59;5035928;28;20178;-87
2020/12/17 03:35:07;;;;;;;9.68;1.35;;;;;;;8.98;74.63;99921.94;5053994;28;20021;-88
2020/12/17 03:37:33;;;;;;;9.52;1.00;;;;;;;9.00;74.28;99920.06;5053814;28;20025;-88
2020/12/17 03:39:58;;;;;;;5.90;1.10;;;;;;;9.00;73.76;99925.31;5053676;28;20028;-88
2020/12/17 03:42:23;;;;;;;13.02;1.73;;;;;;;8.96;74.81;99934.31;5053690;28;20036;-88
2020/12/17 03:44:49;;;;;;;7.25;1.33;;;;;;;8.90;73.26;99922.47;5053557;28;20045;-88
2020/12/17 03:47:14;;;;;;;2.83;1.10;;;;;;;8.92;73.83;99932.84;5053655;28;20032;-88
2020/12/17 03:49:40;;;;;;;8.90;1.70;;;;;;;8.82;75.21;99939.66;5053969;28;20032;-88
2020/12/17 03:52:05;;;;;;;6.38;1.85;;;;;;;8.89;74.87;99948.78;5053413;28;20033;-88
2020/12/17 03:54:30;;;;;;;12.02;1.45;;;;;;;8.86;74.64;99939.34;5053556;28;20037;-88
2020/12/17 03:56:56;;;;;;;11.10;1.45;;;;;;;8.81;74.58;99948.47;5053544;28;20024;-87
2020/12/17 03:59:21;;;;;;;17.13;1.45;;;;;;;8.86;75.15;99951.59;5053498;28;20019;-88
2020/12/17 04:01:46;;;;;;;14.75;1.95;;;;;;;8.84;74.95;99956.94;5057996;28;20029;-87
2020/12/17 04:04:12;;;;;;;11.98;1.95;;;;;;;8.81;75.27;99943.25;5055441;28;20048;-88
2020/12/17 04:06:37;;;;;;;11.70;1.60;;;;;;;8.67;75.84;99960.72;5064151;28;20025;-88
2020/12/17 04:09:02;;;;;;;7.43;1.52;;;;;;;8.59;76.33;99962.16;5078815;28;20017;-87
2020/12/17 04:11:28;;;;;;;13.52;2.30;;;;;;;8.59;76.15;99951.66;5076294;28;20017;-88
2020/12/17 04:13:53;;;;;;;6.03;1.60;;;;;;;8.64;75.75;99962.69;5055232;28;20474;-88
2020/12/17 04:16:18;;;;;;;4.65;1.55;;;;;;;8.69;75.60;99973.69;5055159;28;20032;-88
2020/12/17 04:18:44;;;;;;;11.77;2.25;;;;;;;8.59;76.49;99977.84;5053198;28;20464;-88
2020/12/17 04:21:09;;;;;;;6.78;1.63;;;;;;;8.68;76.13;99975.44;5053110;28;20074;-87
2020/12/17 04:23:34;;;;;;;13.70;2.30;;;;;;;8.54;76.82;99970.31;5052943;28;20064;-88
2020/12/17 04:26:00;;;;;;;9.20;1.75;;;;;;;8.97;75.03;99977.91;5034845;28;20036;-87
2020/12/17 04:28:26;;;;;;;13.90;1.90;;;;;;;8.93;74.43;99976.44;5052956;28;20021;-88
2020/12/17 04:30:54;;;;;;;10.35;1.92;;;;;;;8.90;75.26;99984.47;5052683;28;20041;-88
2020/12/17 04:33:19;;;;;;;9.65;1.42;;;;;;;8.90;74.30;99984.47;5052868;28;20109;-88
2020/12/17 04:35:44;;;;;;;11.40;3.13;;;;;;;8.76;76.10;99980.19;5034779;28;20060;-88
2020/12/17 04:38:09;;;;;;;7.05;1.95;;;;;;;8.85;75.17;99989.22;5052820;28;20043;-88
2020/12/17 04:40:35;;;;;;;13.63;2.05;;;;;;;8.85;75.32;100000.50;5052538;28;20032;-88
2020/12/17 04:43:01;;;;;;;11.45;1.52;;;;;;;8.89;74.90;99995.91;5034874;28;20291;-88
2020/12/17 04:45:27;;;;;;;17.25;2.58;;;;;;;8.89;75.30;100006.38;5034067;28;20028;-88
2020/12/17 04:47:54;;;;;;;11.45;2.03;;;;;;;8.81;75.45;99993.81;5034675;28;20032;-88
2020/12/17 04:50:24;;;;;;;4.53;1.35;;;;;;;8.85;75.59;100004.91;5052866;28;20083;-88
2020/12/17 04:52:52;;;;;;;8.07;1.70;;;;;;;8.77;75.54;99994.09;5052322;28;20025;-88
2020/12/17 04:55:17;;;;;;;9.05;1.90;;;;;;;8.67;75.64;99997.34;5054294;28;20119;-88
2020/12/17 04:57:46;;;;;;;7.68;2.08;;;;;;;8.87;74.84;100009.09;5034555;28;20107;-88
2020/12/17 05:00:13;;;;;;;10.23;1.73;;;;;;;8.85;74.89;100008.38;5052293;28;20025;-88
2020/12/17 05:02:44;;;;;;;6.95;1.95;;;;;;;8.87;74.88;99996.00;5034340;28;20021;-88
2020/12/17 05:05:10;;;;;;;9.27;1.83;;;;;;;8.86;74.43;100012.66;5052200;28;20021;-88
2020/12/17 05:07:36;;;;;;;8.50;1.70;;;;;;;8.87;75.33;100016.13;5052066;28;20396;-88
2020/12/17 05:10:04;;;;;;;9.88;1.80;;;;;;;8.90;74.26;100024.59;5052131;28;20021;-88
2020/12/17 05:12:29;;;;;;;8.13;1.77;;;;;;;8.99;74.62;100027.56;5060542;28;20056;-87
2020/12/17 05:14:55;;;;;;;9.40;1.45;;;;;;;8.86;75.04;100022.28;5046537;28;20036;-88
2020/12/17 05:17:20;;;;;;;9.75;1.60;;;;;;;8.96;74.80;100030.38;5064351;28;20033;-87
2020/12/17 05:19:46;;;;;;;12.98;1.70;;;;;;;8.71;76.19;100025.00;5063312;28;20028;-87
2020/12/17 05:22:15;;;;;;;8.77;1.67;;;;;;;8.95;74.51;100026.09;5066569;28;20024;-87
2020/12/17 05:24:45;;;;;;;8.07;1.27;;;;;;;8.97;75.21;100030.28;5066222;28;20349;-88
2020/12/17 05:27:11;;;;;;;8.32;1.70;;;;;;;9.01;75.08;100036.97;5057064;28;20029;-87
2020/12/17 05:29:38;;;;;;;12.52;2.28;;;;;;;8.85;75.37;100029.31;5046516;28;20025;-87
2020/12/17 05:32:04;;;;;;;9.73;1.48;;;;;;;8.82;75.22;100047.81;5062623;28;20025;-87
2020/12/17 05:34:31;;;;;;;7.32;1.83;;;;;;;8.76;75.45;100042.16;5064194;28;20021;-86
2020/12/17 05:36:56;;;;;;;9.07;1.60;;;;;;;8.85;74.94;100054.66;5063279;28;20033;-87
2020/12/17 05:39:22;;;;;;;7.00;1.20;;;;;;;8.81;74.30;100056.63;5063496;28;20086;-88
2020/12/17 05:41:51;;;;;;;18.25;1.88;;;;;;;8.80;75.41;100054.13;5064329;28;20025;-88
2020/12/17 05:44:18;;;;;;;8.38;1.65;;;;;;;8.76;75.55;100052.63;5041435;28;20053;-87
2020/12/17 05:46:46;;;;;;;9.35;1.60;;;;;;;8.67;75.36;100064.56;5063696;28;20471;-88
2020/12/17 05:49:12;;;;;;;6.22;1.40;;;;;;;8.76;74.95;100061.31;5065230;28;20029;-88
2020/12/17 05:51:38;;;;;;;11.02;1.60;;;;;;;8.63;75.56;100063.91;5046076;28;20031;-87
2020/12/17 05:54:08;;;;;;;14.00;1.88;;;;;;;8.65;75.41;100075.13;5063438;28;20017;-87
2020/12/17 05:56:33;;;;;;;21.27;2.47;;;;;;;8.69;74.14;100074.00;5060819;28;20036;-88
2020/12/17 05:59:04;;;;;;;8.98;1.50;;;;;;;8.53;74.58;100068.91;5037757;28;20028;-88
2020/12/17 06:01:30;;;;;;;14.25;2.03;;;;;;;8.64;74.92;100081.28;5055567;28;20056;-88
2020/12/17 06:03:55;;;;;;;9.00;1.65;;;;;;;8.62;75.04;100077.94;5055446;28;20067;-88
2020/12/17 06:06:21;;;;;;;12.02;1.83;;;;;;;8.60;75.24;100074.56;5055473;28;20483;-87
2020/12/17 06:08:51;;;;;;;6.85;1.80;;;;;;;8.60;75.15;100087.66;5055623;28;20052;-88
2020/12/17 06:11:21;;;;;;;8.25;1.88;;;;;;;8.49;75.86;100085.75;5055564;28;20025;-88
2020/12/17 06:13:53;;;;;;;8.27;1.30;;;;;;;8.57;75.12;100090.50;5055358;28;20502;-88
2020/12/17 06:16:21;;;;;;;12.18;2.42;;;;;;;8.58;74.94;100094.78;5055291;28;20120;-88
2020/12/17 06:18:51;;;;;;;7.05;1.67;;;;;;;8.59;75.28;100096.47;5055341;28;20025;-89
2020/12/17 06:21:17;;;;;;;7.50;1.40;;;;;;;8.61;75.12;100097.22;5055389;28;20033;-86
2020/12/17 06:23:42;;;;;;;8.90;1.25;;;;;;;8.81;74.57;100090.66;5055217;28;20063;-85
2020/12/17 06:26:10;;;;;;;7.55;1.63;;;;;;;8.90;74.16;100094.44;5054950;28;20025;-85
2020/12/17 06:28:48;;;;;;;10.40;1.42;;;;;;;8.92;73.75;100100.41;5054865;28;20108;-85
2020/12/17 06:31:18;;;;;;;11.10;1.52;;;;;;;8.92;73.98;100100.41;5054935;28;20035;-85
2020/12/17 06:33:45;;;;;;;6.32;1.45;;;;;;;8.99;74.52;100100.88;5055094;28;20031;-85
2020/12/17 06:36:22;;;;;;;5.15;1.17;;;;;;;9.06;73.46;100109.97;5055153;28;20067;-85
2020/12/17 06:38:48;;;;;;;6.03;1.20;;;;;;;9.00;73.00;100108.59;5054824;28;20025;-85
2020/12/17 06:41:15;;;;;;;6.30;1.20;;;;;;;8.99;73.54;100104.31;5054645;28;20044;-84
2020/12/17 06:43:41;;;;;;;5.40;1.33;;;;;;;8.94;73.56;100114.25;5054493;28;20033;-85
2020/12/17 06:46:29;;;;;;;6.25;1.65;;;;;;;8.82;74.02;100109.81;5054672;28;20495;-85
2020/12/17 06:48:54;;;;;;;10.90;2.45;;;;;;;8.88;73.93;100110.25;5066473;22;20028;-86
2020/12/17 06:51:55;;;;;;;8.70;1.27;;;;;;;8.69;74.24;100113.25;5052908;28;20112;-85
2020/12/17 06:54:20;;;;;;;8.52;1.52;;;;;;;8.79;74.17;100117.88;5030389;28;20045;-85
2020/12/17 06:57:09;;;;;;;11.07;1.40;;;;;;;8.69;74.00;100126.34;5044439;28;20075;-85
2020/12/17 06:59:37;;;;;;;10.98;1.42;;;;;;;8.65;74.25;100129.22;5055885;28;20074;-86
2020/12/17 07:02:03;;;;;;;9.85;1.50;;;;;;;8.55;74.61;100129.00;5037898;28;20078;-85
2020/12/17 07:04:42;;;;;;;4.80;1.42;;;;;;;8.70;74.26;100138.47;5054280;28;20021;-86
2020/12/17 07:07:13;;;;;;;7.20;1.60;;;;;;;8.76;72.91;100139.84;5034132;28;20423;-86
2020/12/17 07:09:40;;;;;;;6.45;1.40;;;;;;;8.69;73.80;100136.81;5053380;28;20029;-86
2020/12/17 07:12:05;;;;;;;9.05;1.52;;;;;;;8.65;73.65;100140.56;5054151;28;20053;-86
2020/12/17 07:14:33;;;;;;;12.98;1.90;;;;;;;8.60;74.27;100147.84;5051912;28;20057;-85
2020/12/17 07:17:02;;;;;;;4.97;1.00;;;;;;;8.65;74.44;100148.41;5056571;28;20055;-86
2020/12/17 07:19:48;;;;;;;5.50;1.40;;;;;;;8.69;73.25;100152.50;5025884;28;20415;-85
2020/12/17 07:22:18;;;;;;;12.82;1.80;;;;;;;8.66;73.61;100151.88;5053932;28;20437;-86
2020/12/17 07:24:46;;;;;;;3.70;1.17;;;;;;;8.58;74.47;100154.97;5033641;28;20439;-86
2020/12/17 07:27:18;;;;;;;6.72;1.27;;;;;;;8.71;73.59;100170.75;5051917;28;20188;-86
2020/12/17 07:29:52;;;;;;;8.93;1.20;;;;;;;8.72;73.80;100165.38;5064940;28;20344;-86
2020/12/17 07:32:21;;;;;;;8.25;1.45;;;;;;;8.68;74.21;100174.38;5067351;28;20151;-86
2020/12/17 07:34:46;;;;;;;9.35;1.33;;;;;;;8.57;74.13;100173.38;5053490;28;20060;-86
2020/12/17 07:37:34;;;;;;;6.65;1.13;;;;;;;8.53;74.72;100176.19;5053498;28;20126;-86
2020/12/17 07:40:35;;;;;;;8.55;1.48;;;;;;;8.37;74.39;100177.22;5054245;28;20562;-86
2020/12/17 07:43:04;;;;;;;15.43;2.08;;;;;;;8.54;74.43;100190.13;5053304;28;20029;-86
2020/12/17 07:45:45;;;;;;;4.03;1.42;;;;;;;8.57;73.75;100200.41;5052475;28;20513;-86
2020/12/17 07:48:32;;;;;;;7.55;1.33;;;;;;;8.47;74.07;100202.75;5053148;28;20536;-86
2020/12/17 07:50:57;;;;;;;5.32;2.42;;;;;;;8.47;74.48;100200.13;5059789;28;20044;-86
2020/12/17 07:53:24;;;;;;;10.40;1.38;;;;;;;8.54;74.55;100209.28;5073245;28;20029;-85
2020/12/17 07:55:53;;;;;;;8.20;1.50;;;;;;;8.49;74.22;100202.63;5060066;28;20141;-86
2020/12/17 07:58:19;;;;;;;7.63;1.58;;;;;;;8.47;73.84;100194.03;5053200;28;20028;-86
2020/12/17 08:00:44;;;;;;;8.23;2.17;;;;;;;8.47;74.90;100204.50;5063311;28;20024;-85
2020/12/17 08:03:10;;;;;;;4.28;1.80;;;;;;;8.53;74.09;100204.13;5057884;28;20056;-85
2020/12/17 08:05:37;;;;;;;10.50;1.52;;;;;;;8.43;74.81;100208.25;5034913;28;20035;-85
2020/12/17 08:08:02;;;;;;;7.55;1.20;;;;;;;8.54;74.41;100214.50;5052694;28;20064;-86
2020/12/17 08:10:29;;;;;;;9.63;1.60;;;;;;;8.51;73.90;100217.31;5055082;28;20079;-86
2020/12/17 08:12:57;;;;;;;4.57;1.38;;;;;;;8.54;73.96;100221.53;5064995;28;20588;-85
2020/12/17 08:15:23;;;;;;;9.30;1.60;;;;;;;8.48;73.61;100229.75;5051894;28;20476;-86
2020/12/17 08:17:55;;;;;;;6.72;1.50;;;;;;;8.58;74.58;100228.25;5051725;28;20104;-85
2020/12/17 08:20:20;;;;;;;;;;;;;;;8.54;74.87;100224.13;5060193;28;20036;-86
2020/12/17 08:22:47;;;;;;;11.23;2.50;;;;;;;8.77;73.92;100229.69;5072784;28;19916;-86
2020/12/17 08:25:13;;;;;;;15.68;1.95;;;;;;;8.45;75.30;100227.31;5037737;28;20025;-86
2020/12/17 08:27:38;;;;;;;10.00;1.65;;;;;;;8.84;74.64;100244.09;5052504;28;20025;-86
2020/12/17 08:30:04;;;;;;;11.80;1.52;;;;;;;8.87;74.99;100239.50;5057071;28;20013;-86
2020/12/17 08:32:30;;;;;;;6.20;1.52;;;;;;;8.88;73.37;100219.38;5061701;28;20025;-86
2020/12/17 08:34:57;;;;;;;7.13;2.05;;;;;;;8.97;73.30;100238.94;5052214;28;20395;-86
2020/12/17 08:37:26;;;;;;;16.05;1.73;;;;;;;8.95;74.49;100246.88;5052093;28;20020;-86
2020/12/17 08:39:58;;;;;;;12.98;2.08;;;;;;;9.18;74.23;100247.16;5053930;28;20025;-86
2020/12/17 08:42:31;;;;;;;45.60;3.78;;;;;;;9.13;73.73;100250.09;5066682;28;20027;-86
2020/12/17 08:45:05;;;;;;;36.25;3.40;;;;;;;9.33;73.57;100259.28;5051959;28;20071;-86
2020/12/17 08:47:33;;;;;;;19.98;3.47;;;;;;;9.57;73.13;100261.22;5046016;28;20025;-87
2020/12/17 08:50:02;;;;;;;19.77;2.05;;;;;;;9.60;73.47;100268.91;5052335;28;20059;-87
2020/12/17 08:52:27;;;;;;;46.58;4.10;;;;;;;9.59;73.14;100267.22;5033514;28;20391;-87
2020/12/17 08:55:05;;;;;;;18.83;3.33;;;;;;;9.88;72.85;100279.22;5049237;28;20043;-87
2020/12/17 08:57:30;;;;;;;25.42;3.20;;;;;;;9.92;72.92;100287.72;5051901;28;20099;-87
2020/12/17 08:59:56;;;;;;;16.33;1.77;;;;;;;9.65;73.97;100282.53;5047518;28;20146;-86
2020/12/17 09:02:25;;;;;;;21.63;2.55;;;;;;;9.75;72.80;100283.59;5051531;28;20031;-87
2020/12/17 09:04:55;;;;;;;12.80;1.65;;;;;;;9.75;72.97;100280.13;5054964;28;20029;-86
2020/12/17 09:07:29;;;;;;;8.23;1.55;;;;;;;9.93;72.35;100282.38;5036370;28;20025;-87
2020/12/17 09:10:07;;;;;;;15.88;2.35;;;;;;;10.10;71.95;100304.84;5051700;28;20021;-87
2020/12/17 09:12:33;;;;;;;8.35;1.63;;;;;;;10.07;71.73;100298.94;5050919;28;20036;-87
2020/12/17 09:15:05;;;;;;;10.60;1.48;;;;;;;10.10;71.94;100294.34;5047376;28;20033;-86
2020/12/17 09:17:30;;;;;;;12.18;2.72;;;;;;;10.29;71.71;100304.44;5031860;28;20499;-87
2020/12/17 09:19:56;;;;;;;8.10;1.65;;;;;;;10.48;72.13;100303.19;5032372;28;20049;-87
2020/12/17 09:22:23;;;;;;;12.32;2.13;;;;;;;10.50;71.44;100311.81;5038044;28;20029;-87
2020/12/17 09:24:54;;;;;;;13.70;1.50;;;;;;;10.52;72.03;100316.03;5051163;28;20050;-87
2020/12/17 09:27:32;;;;;;;12.90;2.10;;;;;;;10.70;71.12;100324.41;5051268;28;20035;-87
2020/12/17 09:30:09;;;;;;;12.18;2.55;;;;;;;10.37;72.21;100321.47;5046199;28;20287;-87
2020/12/17 09:32:37;;;;;;;8.45;1.40;;;;;;;10.56;71.75;100327.13;5051198;28;20406;-87
2020/12/17 09:35:13;;;;;;;11.60;1.52;;;;;;;10.59;71.09;100332.19;5034514;28;20402;-86
2020/12/17 09:37:54;;;;;;;13.13;2.42;;;;;;;10.45;71.04;100330.50;5060011;28;20433;-87
2020/12/17 09:40:22;;;;;;;10.50;1.73;;;;;;;10.45;71.20;100334.94;5068143;28;20078;-88
2020/12/17 09:42:47;;;;;;;19.50;3.45;;;;;;;10.44;71.08;100336.69;5050675;28;20033;-86
2020/12/17 09:45:15;;;;;;;12.73;1.25;;;;;;;10.71;71.41;100330.50;5053882;28;20032;-86
2020/12/17 09:47:41;;;;;;;6.75;1.30;;;;;;;10.84;71.04;100326.06;5049739;28;20029;-87
2020/12/17 09:50:12;;;;;;;16.75;1.67;;;;;;;10.96;70.30;100339.25;5051330;28;20036;-86
2020/12/17 09:52:38;;;;;;;9.20;1.65;;;;;;;10.96;71.14;100344.50;5036333;28;20036;-86
2020/12/17 09:55:03;;;;;;;16.30;2.00;;;;;;;10.77;71.35;100347.59;5051772;28;20037;-86
2020/12/17 09:58:00;;;;;;;12.38;2.88;;;;;;;11.15;69.72;100344.88;5053945;28;20386;-94
2020/12/17 10:00:25;;;;;;;14.15;2.97;;;;;;;11.78;70.09;100353.47;5040888;28;20033;-93
2020/12/17 10:04:32;;;;;;;18.00;2.30;;;;;;;12.34;69.44;100360.72;5132591;27;20348;-93
2020/12/17 10:06:58;;;;;;;13.15;1.90;;;;;;;13.26;66.16;100373.81;5132320;28;20039;-94
2020/12/17 10:09:24;;;;;;;7.38;1.63;;;;;;;13.70;64.72;100366.78;5132796;27;20029;-91
2020/12/17 10:11:51;;;;;;;12.43;1.95;;;;;;;14.54;62.71;100372.13;5132364;27;20027;-91
2020/12/17 10:14:18;;;;;;;6.45;1.35;;;;;;;15.30;58.65;100377.03;5132113;27;20418;-90
2020/12/17 10:16:43;;;;;;;13.68;2.38;;;;;;;16.00;59.64;100377.00;5142124;27;20061;-90
2020/12/17 10:19:09;;;;;;;8.82;1.42;;;;;;;16.65;58.27;100377.19;5146667;27;20035;-92
2020/12/17 10:21:36;;;;;;;11.73;1.92;;;;;;;17.29;54.19;100386.13;5150624;27;20026;-92
2020/12/17 10:24:03;;;;;;;8.25;1.55;;;;;;;17.90;53.24;100394.44;5146520;27;20031;-94
2020/12/17 10:26:29;;;;;;;10.90;1.75;;;;;;;17.51;55.22;100392.00;5151756;27;20031;-93
2020/12/17 10:28:54;;;;;;;8.98;2.15;;;;;;;17.28;52.85;100389.78;5152854;27;20019;-93
2020/12/17 10:31:20;;;;;;;8.60;1.50;;;;;;;18.07;51.68;100392.72;5151304;28;20011;-94
2020/12/17 10:33:45;;;;;;;7.13;1.40;;;;;;;18.38;50.67;100382.50;5152405;28;20029;-94
2020/12/17 10:36:11;;;;;;;10.68;1.45;;;;;;;18.86;50.03;100388.31;5153233;27;20027;-95
2020/12/17 10:38:36;;;;;;;11.98;1.98;;;;;;;19.12;47.41;100391.78;5148940;27;20011;-94
2020/12/17 10:41:01;;;;;;;10.18;2.55;;;;;;;18.61;48.95;100399.63;5141451;27;20028;-93
2020/12/17 10:43:27;;;;;;;9.13;1.70;;;;;;;19.00;48.40;100391.22;5146112;27;20030;-94
2020/12/17 10:45:52;;;;;;;14.00;1.73;;;;;;;19.33;47.35;100394.03;5136482;28;20028;-93
2020/12/17 10:48:17;;;;;;;7.90;1.92;;;;;;;19.57;47.08;100397.75;5142197;27;20023;-93
2020/12/17 10:50:43;;;;;;;6.85;1.10;;;;;;;20.11;47.27;100398.16;5135094;27;20485;-93
2020/12/17 10:53:08;;;;;;;10.85;2.25;;;;;;;20.27;47.76;100405.31;5132475;28;20084;-93
2020/12/17 10:55:33;;;;;;;11.43;2.03;;;;;;;20.14;47.21;100400.50;5133097;27;20102;-93
2020/12/17 10:57:59;;;;;;;12.35;1.83;;;;;;;19.87;44.41;100390.16;5131738;27;20047;-93
2020/12/17 11:00:24;;;;;;;8.23;2.10;;;;;;;18.45;48.17;100396.03;5130715;27;20512;-93
2020/12/17 11:02:49;;;;;;;12.35;2.33;;;;;;;18.46;49.32;100390.53;5130155;27;20386;-93
2020/12/17 11:05:15;;;;;;;6.38;2.03;;;;;;;18.06;50.28;100396.41;5130897;28;20033;-93
2020/12/17 11:07:40;;;;;;;14.93;2.10;;;;;;;17.60;51.30;100393.78;5130833;27;20039;-92
2020/12/17 11:10:06;;;;;;;13.80;1.65;;;;;;;17.25;52.92;100401.50;5136420;27;20068;-95
2020/12/17 11:12:31;;;;;;;12.02;2.13;;;;;;;17.25;54.11;100398.03;5141701;27;20047;-92
2020/12/17 11:14:56;;;;;;;11.88;1.70;;;;;;;17.34;52.28;100389.19;5126613;27;20095;-92
2020/12/17 11:17:22;;;;;;;10.32;1.65;;;;;;;17.38;53.78;100393.22;5117523;27;20034;-93
2020/12/17 11:19:47;;;;;;;12.68;2.20;;;;;;;17.53;52.89;100387.38;5118484;28;20091;-93
2020/12/17 11:22:13;;;;;;;6.38;1.75;;;;;;;17.49;52.85;100396.63;5116860;28;20563;-94
2020/12/17 11:24:39;;;;;;;8.82;1.77;;;;;;;17.07;53.94;100397.16;5114723;28;20019;-93
2020/12/17 11:27:04;;;;;;;10.68;1.73;;;;;;;16.49;54.34;100388.38;5116657;28;20016;-93
2020/12/17 11:29:30;;;;;;;13.32;2.08;;;;;;;15.80;54.94;100387.59;5116726;27;20477;-94
2020/12/17 11:31:55;;;;;;;8.50;1.85;;;;;;;15.61;56.02;100392.84;5115107;28;20020;-93
2020/12/17 11:34:21;;;;;;;11.68;2.10;;;;;;;15.62;57.22;100394.50;5116149;28;20107;-93